sensor_id;sensor_type;location;lat;lon;timestamp;pressure;altitude;pressure_sealevel;temperature;humidity
14612;BME280;7392;52.078;11.650;2023-04-08T00:00:39;101422.34;;;5.76;100.00
14612;BME280;7392;52.078;11.650;2023-04-08T00:03:07;101416.16;;;5.75;100.00
14612;BME280;7392;52.078;11.650;2023-04-08T00:05:35;101421.44;;;5.75;100.00
14612;BME280;7392;52.078;11.650;2023-04-08T00:08:03;101417.84;;;5.73;100.00
14612;BME280;7392;52.078;11.650;2023-04-08T00:10:32;101407.28;;;5.72;100.00
14612;BME280;7392;52.078;11.650;2023-04-08T00:13:00;101415.19;;;5.72;100.00
14612;BME280;7392;52.078;11.650;2023-04-08T00:15:28;101416.03;;;5.71;100.00
14612;BME280;7392;52.078;11.650;2023-04-08T00:17:55;101409.84;;;5.70;100.00
14612;BME280;7392;52.078;11.650;2023-04-08T00:20:23;101406.34;;;5.70;100.00
14612;BME280;7392;52.078;11.650;2023-04-08T00:22:51;101405.47;;;5.69;100.00
14612;BME280;7392;52.078;11.650;2023-04-08T00:25:19;101406.28;;;5.68;100.00
14612;BME280;7392;52.078;11.650;2023-04-08T00:27:52;101409.81;;;5.67;100.00
14612;BME280;7392;52.078;11.650;2023-04-08T00:30:19;101417.72;;;5.67;100.00
14612;BME280;7392;52.078;11.650;2023-04-08T00:32:48;101414.16;;;5.67;100.00
14612;BME280;7392;52.078;11.650;2023-04-08T00:35:15;101423.84;;;5.68;100.00
14612;BME280;7392;52.078;11.650;2023-04-08T00:37:43;101415.91;;;5.66;100.00
14612;BME280;7392;52.078;11.650;2023-04-08T00:40:11;101415.91;;;5.66;100.00
14612;BME280;7392;52.078;11.650;2023-04-08T00:42:39;101424.66;;;5.65;100.00
14612;BME280;7392;52.078;11.650;2023-04-08T00:45:09;101413.22;;;5.65;100.00
14612;BME280;7392;52.078;11.650;2023-04-08T00:47:37;101414.97;;;5.64;100.00
14612;BME280;7392;52.078;11.650;2023-04-08T00:50:07;101411.44;;;5.63;100.00
14612;BME280;7392;52.078;11.650;2023-04-08T00:52:36;101405.28;;;5.63;100.00
14612;BME280;7392;52.078;11.650;2023-04-08T00:55:04;101421.03;;;5.61;100.00
14612;BME280;7392;52.078;11.650;2023-04-08T00:57:32;101414.88;;;5.61;100.00
14612;BME280;7392;52.078;11.650;2023-04-08T01:00:01;101426.31;;;5.61;100.00
14612;BME280;7392;52.078;11.650;2023-04-08T01:02:38;101416.69;;;5.62;100.00
14612;BME280;7392;52.078;11.650;2023-04-08T01:05:13;101419.28;;;5.60;100.00
14612;BME280;7392;52.078;11.650;2023-04-08T01:07:46;101406.94;;;5.59;100.00
14612;BME280;7392;52.078;11.650;2023-04-08T01:10:16;101413.03;;;5.58;100.00
14612;BME280;7392;52.078;11.650;2023-04-08T01:12:49;101420.00;;;5.56;100.00
14612;BME280;7392;52.078;11.650;2023-04-08T01:15:18;101414.75;;;5.56;100.00
14612;BME280;7392;52.078;11.650;2023-04-08T01:17:49;101418.28;;;5.57;100.00
14612;BME280;7392;52.078;11.650;2023-04-08T01:20:20;101417.38;;;5.56;100.00
14612;BME280;7392;52.078;11.650;2023-04-08T01:23:00;101423.50;;;5.55;100.00
14612;BME280;7392;52.078;11.650;2023-04-08T01:25:31;101416.44;;;5.54;100.00
14612;BME280;7392;52.078;11.650;2023-04-08T01:28:04;101411.06;;;5.51;100.00
14612;BME280;7392;52.078;11.650;2023-04-08T01:30:33;101421.66;;;5.53;100.00
14612;BME280;7392;52.078;11.650;2023-04-08T01:33:02;101420.78;;;5.52;100.00
14612;BME280;7392;52.078;11.650;2023-04-08T01:35:32;101404.09;;;5.52;100.00
14612;BME280;7392;52.078;11.650;2023-04-08T01:38:01;101419.91;;;5.52;100.00
14612;BME280;7392;52.078;11.650;2023-04-08T01:40:30;101424.31;;;5.53;100.00
14612;BME280;7392;52.078;11.650;2023-04-08T01:43:03;101426.94;;;5.53;100.00
14612;BME280;7392;52.078;11.650;2023-04-08T01:45:34;101416.31;;;5.50;100.00
14612;BME280;7392;52.078;11.650;2023-04-08T01:48:02;101419.81;;;5.49;100.00
14612;BME280;7392;52.078;11.650;2023-04-08T01:50:30;101418.88;;;5.48;100.00
14612;BME280;7392;52.078;11.650;2023-04-08T01:52:59;101423.22;;;5.46;100.00
14612;BME280;7392;52.078;11.650;2023-04-08T01:55:29;101424.09;;;5.45;100.00
14612;BME280;7392;52.078;11.650;2023-04-08T01:57:59;101423.19;;;5.44;100.00
14612;BME280;7392;52.078;11.650;2023-04-08T02:00:30;101422.28;;;5.44;100.00
14612;BME280;7392;52.078;11.650;2023-04-08T02:03:01;101421.41;;;5.43;100.00
14612;BME280;7392;52.078;11.650;2023-04-08T02:05:29;101423.13;;;5.43;100.00
14612;BME280;7392;52.078;11.650;2023-04-08T02:07:57;101422.28;;;5.44;100.00
14612;BME280;7392;52.078;11.650;2023-04-08T02:10:26;101424.94;;;5.44;100.00
14612;BME280;7392;52.078;11.650;2023-04-08T02:12:55;101422.28;;;5.44;100.00
14612;BME280;7392;52.078;11.650;2023-04-08T02:15:26;101417.91;;;5.44;100.00
14612;BME280;7392;52.078;11.650;2023-04-08T02:18:02;101417.91;;;5.44;100.00
14612;BME280;7392;52.078;11.650;2023-04-08T02:20:36;101415.28;;;5.44;100.00
14612;BME280;7392;52.078;11.650;2023-04-08T02:23:09;101423.19;;;5.44;100.00
14612;BME280;7392;52.078;11.650;2023-04-08T02:25:43;101417.06;;;5.46;100.00
14612;BME280;7392;52.078;11.650;2023-04-08T02:28:12;101424.09;;;5.45;100.00
14612;BME280;7392;52.078;11.650;2023-04-08T02:30:44;101429.38;;;5.45;100.00
14612;BME280;7392;52.078;11.650;2023-04-08T02:33:17;101424.09;;;5.45;100.00
14612;BME280;7392;52.078;11.650;2023-04-08T02:35:46;101424.09;;;5.45;100.00
14612;BME280;7392;52.078;11.650;2023-04-08T02:38:14;101428.44;;;5.44;100.00
14612;BME280;7392;52.078;11.650;2023-04-08T02:40:42;101430.25;;;5.46;100.00
14612;BME280;7392;52.078;11.650;2023-04-08T02:43:10;101438.09;;;5.44;100.00
14612;BME280;7392;52.078;11.650;2023-04-08T02:45:40;101436.31;;;5.43;100.00
14612;BME280;7392;52.078;11.650;2023-04-08T02:48:09;101435.47;;;5.44;100.00
14612;BME280;7392;52.078;11.650;2023-04-08T02:50:38;101445.19;;;5.45;100.00
14612;BME280;7392;52.078;11.650;2023-04-08T02:53:07;101438.09;;;5.44;100.00
14612;BME280;7392;52.078;11.650;2023-04-08T02:55:36;101431.94;;;5.43;100.00
14612;BME280;7392;52.078;11.650;2023-04-08T02:58:05;101438.09;;;5.44;100.00
14612;BME280;7392;52.078;11.650;2023-04-08T03:00:32;101443.38;;;5.44;100.00
14612;BME280;7392;52.078;11.650;2023-04-08T03:03:00;101442.50;;;5.43;100.00
14612;BME280;7392;52.078;11.650;2023-04-08T03:05:28;101449.53;;;5.44;100.00
14612;BME280;7392;52.078;11.650;2023-04-08T03:07:58;101446.84;;;5.43;100.00
14612;BME280;7392;52.078;11.650;2023-04-08T03:10:25;101445.97;;;5.42;100.00
14612;BME280;7392;52.078;11.650;2023-04-08T03:12:53;101452.09;;;5.41;100.00
14612;BME280;7392;52.078;11.650;2023-04-08T03:15:21;101446.81;;;5.41;100.00
14612;BME280;7392;52.078;11.650;2023-04-08T03:17:49;101452.03;;;5.40;100.00
14612;BME280;7392;52.078;11.650;2023-04-08T03:20:17;101445.84;;;5.39;100.00
14612;BME280;7392;52.078;11.650;2023-04-08T03:22:44;101438.81;;;5.38;100.00
14612;BME280;7392;52.078;11.650;2023-04-08T03:25:13;101444.09;;;5.38;100.00
14612;BME280;7392;52.078;11.650;2023-04-08T03:27:41;101449.38;;;5.38;100.00
14612;BME280;7392;52.078;11.650;2023-04-08T03:30:09;101440.53;;;5.38;100.00
14612;BME280;7392;52.078;11.650;2023-04-08T03:32:37;101441.50;;;5.40;100.00
14612;BME280;7392;52.078;11.650;2023-04-08T03:35:05;101445.84;;;5.39;100.00
14612;BME280;7392;52.078;11.650;2023-04-08T03:37:33;101440.59;;;5.39;100.00
14612;BME280;7392;52.078;11.650;2023-04-08T03:40:01;101443.19;;;5.38;100.00
14612;BME280;7392;52.078;11.650;2023-04-08T03:42:31;101445.81;;;5.38;100.00
14612;BME280;7392;52.078;11.650;2023-04-08T03:44:59;101447.59;;;5.39;100.00
14612;BME280;7392;52.078;11.650;2023-04-08T03:47:27;101454.63;;;5.38;100.00
14612;BME280;7392;52.078;11.650;2023-04-08T03:49:54;101448.44;;;5.38;100.00
14612;BME280;7392;52.078;11.650;2023-04-08T03:52:23;101444.88;;;5.36;100.00
14612;BME280;7392;52.078;11.650;2023-04-08T03:54:51;101465.06;;;5.35;100.00
14612;BME280;7392;52.078;11.650;2023-04-08T03:57:19;101467.72;;;5.35;100.00
14612;BME280;7392;52.078;11.650;2023-04-08T03:59:48;101457.94;;;5.33;100.00
14612;BME280;7392;52.078;11.650;2023-04-08T04:02:15;101455.31;;;5.33;100.00
14612;BME280;7392;52.078;11.650;2023-04-08T04:04:43;101459.69;;;5.32;100.00
14612;BME280;7392;52.078;11.650;2023-04-08T04:07:11;101464.09;;;5.32;100.00
14612;BME280;7392;52.078;11.650;2023-04-08T04:09:39;101470.25;;;5.32;100.00
14612;BME280;7392;52.078;11.650;2023-04-08T04:12:06;101467.59;;;5.32;100.00
14612;BME280;7392;52.078;11.650;2023-04-08T04:14:34;101468.50;;;5.33;100.00
14612;BME280;7392;52.078;11.650;2023-04-08T04:17:03;101468.50;;;5.33;100.00
14612;BME280;7392;52.078;11.650;2023-04-08T04:19:31;101467.66;;;5.34;100.00
14612;BME280;7392;52.078;11.650;2023-04-08T04:21:59;101472.03;;;5.33;100.00
14612;BME280;7392;52.078;11.650;2023-04-08T04:24:27;101475.56;;;5.34;100.00
14612;BME280;7392;52.078;11.650;2023-04-08T04:26:54;101472.00;;;5.32;100.00
14612;BME280;7392;52.078;11.650;2023-04-08T04:29:22;101474.63;;;5.32;100.00
14612;BME280;7392;52.078;11.650;2023-04-08T04:31:50;101472.88;;;5.32;100.00
14612;BME280;7392;52.078;11.650;2023-04-08T04:34:19;101474.63;;;5.32;100.00
14612;BME280;7392;52.078;11.650;2023-04-08T04:36:46;101479.00;;;5.31;100.00
14612;BME280;7392;52.078;11.650;2023-04-08T04:39:14;101493.13;;;5.33;100.00
14612;BME280;7392;52.078;11.650;2023-04-08T04:41:41;101493.91;;;5.31;100.00
14612;BME280;7392;52.078;11.650;2023-04-08T04:44:09;101509.72;;;5.31;100.00
14612;BME280;7392;52.078;11.650;2023-04-08T04:46:37;101501.84;;;5.32;100.00
14612;BME280;7392;52.078;11.650;2023-04-08T04:49:05;101507.06;;;5.31;100.00
14612;BME280;7392;52.078;11.650;2023-04-08T04:51:34;101504.50;;;5.32;100.00
14612;BME280;7392;52.078;11.650;2023-04-08T04:54:02;101511.50;;;5.32;100.00
14612;BME280;7392;52.078;11.650;2023-04-08T04:56:29;101511.50;;;5.32;100.00
14612;BME280;7392;52.078;11.650;2023-04-08T04:58:57;101509.75;;;5.32;100.00
14612;BME280;7392;52.078;11.650;2023-04-08T05:01:25;101517.72;;;5.34;100.00
14612;BME280;7392;52.078;11.650;2023-04-08T05:03:54;101519.47;;;5.33;100.00
14612;BME280;7392;52.078;11.650;2023-04-08T05:06:22;101522.09;;;5.33;100.00
14612;BME280;7392;52.078;11.650;2023-04-08T05:08:51;101529.09;;;5.33;100.00
14612;BME280;7392;52.078;11.650;2023-04-08T05:11:19;101518.53;;;5.33;100.00
14612;BME280;7392;52.078;11.650;2023-04-08T05:13:47;101525.63;;;5.34;100.00
14612;BME280;7392;52.078;11.650;2023-04-08T05:16:15;101526.44;;;5.33;100.00
14612;BME280;7392;52.078;11.650;2023-04-08T05:18:43;101530.94;;;5.35;100.00
14612;BME280;7392;52.078;11.650;2023-04-08T05:21:11;101530.88;;;5.34;100.00
14612;BME280;7392;52.078;11.650;2023-04-08T05:23:38;101531.78;;;5.34;100.00
14612;BME280;7392;52.078;11.650;2023-04-08T05:26:08;101533.53;;;5.34;100.00
14612;BME280;7392;52.078;11.650;2023-04-08T05:28:35;101533.53;;;5.34;100.00
14612;BME280;7392;52.078;11.650;2023-04-08T05:31:03;101543.13;;;5.32;100.00
14612;BME280;7392;52.078;11.650;2023-04-08T05:33:31;101547.44;;;5.30;100.00
14612;BME280;7392;52.078;11.650;2023-04-08T05:35:59;101543.00;;;5.29;100.00
14612;BME280;7392;52.078;11.650;2023-04-08T05:38:27;101544.75;;;5.28;100.00
14612;BME280;7392;52.078;11.650;2023-04-08T05:41:37;101552.66;;;5.28;100.00
14612;BME280;7392;52.078;11.650;2023-04-08T05:44:05;101558.00;;;5.30;100.00
14612;BME280;7392;52.078;11.650;2023-04-08T05:46:33;101554.44;;;5.29;100.00
14612;BME280;7392;52.078;11.650;2023-04-08T05:49:01;101563.25;;;5.30;100.00
14612;BME280;7392;52.078;11.650;2023-04-08T05:51:29;101556.25;;;5.30;100.00
14612;BME280;7392;52.078;11.650;2023-04-08T05:53:56;101560.69;;;5.33;100.00
14612;BME280;7392;52.078;11.650;2023-04-08T05:56:24;101563.34;;;5.33;100.00
14612;BME280;7392;52.078;11.650;2023-04-08T05:58:53;101567.75;;;5.34;100.00
14612;BME280;7392;52.078;11.650;2023-04-08T06:01:21;101566.94;;;5.35;100.00
14612;BME280;7392;52.078;11.650;2023-04-08T06:03:49;101568.66;;;5.34;100.00
14612;BME280;7392;52.078;11.650;2023-04-08T06:06:18;101570.44;;;5.35;100.00
14612;BME280;7392;52.078;11.650;2023-04-08T06:08:46;101568.72;;;5.36;100.00
14612;BME280;7392;52.078;11.650;2023-04-08T06:11:14;101578.34;;;5.35;100.00
14612;BME280;7392;52.078;11.650;2023-04-08T06:13:42;101579.25;;;5.36;100.00
14612;BME280;7392;52.078;11.650;2023-04-08T06:16:13;101583.63;;;5.35;100.00
14612;BME280;7392;52.078;11.650;2023-04-08T06:18:46;101587.16;;;5.36;100.00
14612;BME280;7392;52.078;11.650;2023-04-08T06:21:14;101593.34;;;5.36;100.00
14612;BME280;7392;52.078;11.650;2023-04-08T06:23:43;101593.34;;;5.36;100.00
14612;BME280;7392;52.078;11.650;2023-04-08T06:26:11;101594.22;;;5.37;100.00
14612;BME280;7392;52.078;11.650;2023-04-08T06:28:39;101602.13;;;5.37;100.00
14612;BME280;7392;52.078;11.650;2023-04-08T06:31:07;101592.47;;;5.37;100.00
14612;BME280;7392;52.078;11.650;2023-04-08T06:33:37;101597.78;;;5.39;100.00
14612;BME280;7392;52.078;11.650;2023-04-08T06:36:07;101596.00;;;5.38;100.00
14612;BME280;7392;52.078;11.650;2023-04-08T06:38:35;101603.91;;;5.38;100.00
14612;BME280;7392;52.078;11.650;2023-04-08T06:41:05;101602.19;;;5.38;100.00
14612;BME280;7392;52.078;11.650;2023-04-08T06:43:34;101606.59;;;5.39;100.00
14612;BME280;7392;52.078;11.650;2023-04-08T06:46:06;101613.66;;;5.40;100.00
14612;BME280;7392;52.078;11.650;2023-04-08T06:48:34;101611.06;;;5.42;100.00
14612;BME280;7392;52.078;11.650;2023-04-08T06:51:05;101608.50;;;5.43;100.00
14612;BME280;7392;52.078;11.650;2023-04-08T06:53:33;101609.38;;;5.44;100.00
14612;BME280;7392;52.078;11.650;2023-04-08T06:56:01;101618.22;;;5.46;100.00
14612;BME280;7392;52.078;11.650;2023-04-08T06:58:29;101621.78;;;5.48;100.00
14612;BME280;7392;52.078;11.650;2023-04-08T07:00:59;101623.69;;;5.52;100.00
14612;BME280;7392;52.078;11.650;2023-04-08T07:03:28;101624.69;;;5.56;100.00
14612;BME280;7392;52.078;11.650;2023-04-08T07:05:56;101624.78;;;5.59;100.00
14612;BME280;7392;52.078;11.650;2023-04-08T07:08:25;101623.16;;;5.62;100.00
14612;BME280;7392;52.078;11.650;2023-04-08T07:10:53;101632.88;;;5.65;100.00
14612;BME280;7392;52.078;11.650;2023-04-08T07:13:21;101639.13;;;5.69;100.00
14612;BME280;7392;52.078;11.650;2023-04-08T07:15:49;101636.66;;;5.73;100.00
14612;BME280;7392;52.078;11.650;2023-04-08T07:18:16;101632.38;;;5.77;100.00
14612;BME280;7392;52.078;11.650;2023-04-08T07:20:49;101636.06;;;5.82;100.00
14612;BME280;7392;52.078;11.650;2023-04-08T07:23:18;101621.22;;;5.86;100.00
14612;BME280;7392;52.078;11.650;2023-04-08T07:25:47;101632.81;;;5.91;100.00
14612;BME280;7392;52.078;11.650;2023-04-08T07:28:15;101640.81;;;5.94;100.00
14612;BME280;7392;52.078;11.650;2023-04-08T07:30:43;101642.75;;;5.98;100.00
14612;BME280;7392;52.078;11.650;2023-04-08T07:33:10;101645.47;;;6.01;100.00
14612;BME280;7392;52.078;11.650;2023-04-08T07:35:38;101654.41;;;6.06;100.00
14612;BME280;7392;52.078;11.650;2023-04-08T07:38:07;101658.06;;;6.10;100.00
14612;BME280;7392;52.078;11.650;2023-04-08T07:40:37;101662.56;;;6.14;100.00
14612;BME280;7392;52.078;11.650;2023-04-08T07:43:06;101675.91;;;6.18;100.00
14612;BME280;7392;52.078;11.650;2023-04-08T07:45:34;101671.56;;;6.21;100.00
14612;BME280;7392;52.078;11.650;2023-04-08T07:48:02;101667.22;;;6.23;100.00
14612;BME280;7392;52.078;11.650;2023-04-08T07:50:30;101654.97;;;6.25;100.00
14612;BME280;7392;52.078;11.650;2023-04-08T07:52:57;101663.00;;;6.28;100.00
14612;BME280;7392;52.078;11.650;2023-04-08T07:55:25;101661.28;;;6.30;100.00
14612;BME280;7392;52.078;11.650;2023-04-08T07:57:53;101671.06;;;6.32;100.00
14612;BME280;7392;52.078;11.650;2023-04-08T08:00:22;101673.75;;;6.34;100.00
14612;BME280;7392;52.078;11.650;2023-04-08T08:02:50;101664.13;;;6.36;100.00
14612;BME280;7392;52.078;11.650;2023-04-08T08:05:18;101669.50;;;6.39;100.00
14612;BME280;7392;52.078;11.650;2023-04-08T08:07:46;101668.63;;;6.40;100.00
14612;BME280;7392;52.078;11.650;2023-04-08T08:10:13;101666.03;;;6.42;100.00
14612;BME280;7392;52.078;11.650;2023-04-08T08:12:44;101674.84;;;6.42;100.00
14612;BME280;7392;52.078;11.650;2023-04-08T08:15:11;101677.53;;;6.44;100.00
14612;BME280;7392;52.078;11.650;2023-04-08T08:17:41;101675.81;;;6.44;100.00
14612;BME280;7392;52.078;11.650;2023-04-08T08:20:10;101674.94;;;6.45;100.00
14612;BME280;7392;52.078;11.650;2023-04-08T08:22:37;101674.97;;;6.47;100.00
14612;BME280;7392;52.078;11.650;2023-04-08T08:25:20;101687.34;;;6.48;100.00
14612;BME280;7392;52.078;11.650;2023-04-08T08:27:50;101686.53;;;6.50;100.00
14612;BME280;7392;52.078;11.650;2023-04-08T08:30:17;101683.13;;;6.54;100.00
14612;BME280;7392;52.078;11.650;2023-04-08T08:32:48;101689.41;;;6.58;100.00
14612;BME280;7392;52.078;11.650;2023-04-08T08:35:17;101692.97;;;6.60;100.00
14612;BME280;7392;52.078;11.650;2023-04-08T08:37:45;101698.34;;;6.63;100.00
14612;BME280;7392;52.078;11.650;2023-04-08T08:40:13;101691.44;;;6.68;100.00
14612;BME280;7392;52.078;11.650;2023-04-08T08:42:42;101703.03;;;6.73;100.00
14612;BME280;7392;52.078;11.650;2023-04-08T08:45:16;101697.91;;;6.78;100.00
14612;BME280;7392;52.078;11.650;2023-04-08T08:47:44;101692.78;;;6.84;100.00
14612;BME280;7392;52.078;11.650;2023-04-08T08:50:16;101701.75;;;6.91;100.00
14612;BME280;7392;52.078;11.650;2023-04-08T08:52:48;101712.50;;;6.97;100.00
14612;BME280;7392;52.078;11.650;2023-04-08T08:55:17;101715.22;;;7.00;100.00
14612;BME280;7392;52.078;11.650;2023-04-08T08:58:05;101717.09;;;7.04;100.00
14612;BME280;7392;52.078;11.650;2023-04-08T09:00:37;101719.84;;;7.07;100.00
14612;BME280;7392;52.078;11.650;2023-04-08T09:03:16;101715.63;;;7.14;100.00
14612;BME280;7392;52.078;11.650;2023-04-08T09:05:51;101727.16;;;7.18;100.00
14612;BME280;7392;52.078;11.650;2023-04-08T09:08:23;101726.38;;;7.22;100.00
14612;BME280;7392;52.078;11.650;2023-04-08T09:10:51;101729.16;;;7.26;100.00
14612;BME280;7392;52.078;11.650;2023-04-08T09:13:21;101736.22;;;7.27;100.00
14612;BME280;7392;52.078;11.650;2023-04-08T09:16:01;101735.47;;;7.32;100.00
14612;BME280;7392;52.078;11.650;2023-04-08T09:18:31;101739.03;;;7.34;100.00
14612;BME280;7392;52.078;11.650;2023-04-08T09:21:00;101737.38;;;7.37;100.00
14612;BME280;7392;52.078;11.650;2023-04-08T09:23:39;101748.03;;;7.40;100.00
14612;BME280;7392;52.078;11.650;2023-04-08T09:26:08;101754.19;;;7.41;100.00
14612;BME280;7392;52.078;11.650;2023-04-08T09:28:37;101761.34;;;7.43;100.00
14612;BME280;7392;52.078;11.650;2023-04-08T09:31:18;101759.72;;;7.48;100.00
14612;BME280;7392;52.078;11.650;2023-04-08T09:33:47;101750.06;;;7.51;100.00
14612;BME280;7392;52.078;11.650;2023-04-08T09:36:17;101767.69;;;7.50;100.00
14612;BME280;7392;52.078;11.650;2023-04-08T09:38:45;101760.72;;;7.54;100.00
14612;BME280;7392;52.078;11.650;2023-04-08T09:41:14;101754.50;;;7.53;100.00
14612;BME280;7392;52.078;11.650;2023-04-08T09:43:43;101761.69;;;7.57;100.00
14612;BME280;7392;52.078;11.650;2023-04-08T09:46:18;101752.97;;;7.61;100.00
14612;BME280;7392;52.078;11.650;2023-04-08T09:48:56;101763.63;;;7.64;100.00
14612;BME280;7392;52.078;11.650;2023-04-08T09:51:28;101761.84;;;7.63;100.00
14612;BME280;7392;52.078;11.650;2023-04-08T09:54:00;101768.94;;;7.64;100.00
14612;BME280;7392;52.078;11.650;2023-04-08T09:56:34;101761.88;;;7.65;100.00
14612;BME280;7392;52.078;11.650;2023-04-08T09:59:08;101760.94;;;7.63;100.00
14612;BME280;7392;52.078;11.650;2023-04-08T10:01:44;101760.09;;;7.64;100.00
14612;BME280;7392;52.078;11.650;2023-04-08T10:04:14;101768.97;;;7.66;100.00
14612;BME280;7392;52.078;11.650;2023-04-08T10:06:47;101774.22;;;7.64;100.00
14612;BME280;7392;52.078;11.650;2023-04-08T10:09:20;101771.53;;;7.63;100.00
14612;BME280;7392;52.078;11.650;2023-04-08T10:11:49;101783.06;;;7.66;100.00
14612;BME280;7392;52.078;11.650;2023-04-08T10:14:16;101777.78;;;7.66;100.00
14612;BME280;7392;52.078;11.650;2023-04-08T10:16:44;101782.19;;;7.66;100.00
14612;BME280;7392;52.078;11.650;2023-04-08T10:19:36;101781.34;;;7.67;100.00
14612;BME280;7392;52.078;11.650;2023-04-08T10:22:45;101782.28;;;7.69;100.00
14612;BME280;7392;52.078;11.650;2023-04-08T10:25:32;101783.25;;;7.73;100.00
14612;BME280;7392;52.078;11.650;2023-04-08T10:28:01;101786.78;;;7.73;100.00
14612;BME280;7392;52.078;11.650;2023-04-08T10:30:49;101780.66;;;7.74;100.00
14612;BME280;7392;52.078;11.650;2023-04-08T10:33:20;101778.84;;;7.73;100.00
14612;BME280;7392;52.078;11.650;2023-04-08T10:35:52;101786.78;;;7.73;100.00
14612;BME280;7392;52.078;11.650;2023-04-08T10:38:22;101774.44;;;7.72;100.00
14612;BME280;7392;52.078;11.650;2023-04-08T10:40:50;101778.84;;;7.73;100.00
14612;BME280;7392;52.078;11.650;2023-04-08T10:43:17;101778.84;;;7.73;100.00
14612;BME280;7392;52.078;11.650;2023-04-08T10:45:45;101781.53;;;7.75;100.00
14612;BME280;7392;52.078;11.650;2023-04-08T10:48:18;101785.97;;;7.76;100.00
14612;BME280;7392;52.078;11.650;2023-04-08T10:50:52;101789.50;;;7.76;100.00
14612;BME280;7392;52.078;11.650;2023-04-08T10:53:27;101790.44;;;7.78;100.00
14612;BME280;7392;52.078;11.650;2023-04-08T10:56:02;101798.38;;;7.78;100.00
14612;BME280;7392;52.078;11.650;2023-04-08T10:58:31;101786.94;;;7.79;100.00
14612;BME280;7392;52.078;11.650;2023-04-08T11:01:02;101782.59;;;7.81;100.00
14612;BME280;7392;52.078;11.650;2023-04-08T11:03:33;101794.06;;;7.82;100.00
14612;BME280;7392;52.078;11.650;2023-04-08T11:06:01;101790.56;;;7.83;100.00
14612;BME280;7392;52.078;11.650;2023-04-08T11:08:31;101788.84;;;7.85;100.00
14612;BME280;7392;52.078;11.650;2023-04-08T11:11:00;101795.03;;;7.85;100.00
14612;BME280;7392;52.078;11.650;2023-04-08T11:13:29;101789.69;;;7.84;100.00
14612;BME280;7392;52.078;11.650;2023-04-08T11:15:58;101790.59;;;7.84;100.00
14612;BME280;7392;52.078;11.650;2023-04-08T11:18:29;101795.91;;;7.84;100.00
14612;BME280;7392;52.078;11.650;2023-04-08T11:20:57;101788.00;;;7.86;100.00
14612;BME280;7392;52.078;11.650;2023-04-08T11:23:26;101796.81;;;7.86;100.00
14612;BME280;7392;52.078;11.650;2023-04-08T11:25:56;101796.91;;;7.90;100.00
14612;BME280;7392;52.078;11.650;2023-04-08T11:28:24;101797.78;;;7.90;100.00
14612;BME280;7392;52.078;11.650;2023-04-08T11:30:53;101803.13;;;7.92;100.00
14612;BME280;7392;52.078;11.650;2023-04-08T11:33:24;101793.50;;;7.95;100.00
14612;BME280;7392;52.078;11.650;2023-04-08T11:35:53;101803.38;;;8.02;100.00
14612;BME280;7392;52.078;11.650;2023-04-08T11:38:22;101806.38;;;8.15;100.00
14612;BME280;7392;52.078;11.650;2023-04-08T11:40:56;101798.69;;;8.26;100.00
14612;BME280;7392;52.078;11.650;2023-04-08T11:43:24;101793.50;;;8.30;100.00
14612;BME280;7392;52.078;11.650;2023-04-08T11:45:54;101795.31;;;8.33;100.00
14612;BME280;7392;52.078;11.650;2023-04-08T11:48:22;101796.19;;;8.33;100.00
14612;BME280;7392;52.078;11.650;2023-04-08T11:51:02;101798.00;;;8.34;100.00
14612;BME280;7392;52.078;11.650;2023-04-08T11:53:31;101789.25;;;8.38;100.00
14612;BME280;7392;52.078;11.650;2023-04-08T11:56:18;101793.91;;;8.47;100.00
14612;BME280;7392;52.078;11.650;2023-04-08T11:58:49;101789.69;;;8.55;100.00
14612;BME280;7392;52.078;11.650;2023-04-08T12:01:17;101781.97;;;8.65;100.00
14612;BME280;7392;52.078;11.650;2023-04-08T12:03:57;101791.66;;;8.66;100.00
14612;BME280;7392;52.078;11.650;2023-04-08T12:06:26;101784.63;;;8.66;100.00
14612;BME280;7392;52.078;11.650;2023-04-08T12:08:54;101784.84;;;8.75;100.00
14612;BME280;7392;52.078;11.650;2023-04-08T12:11:23;101782.38;;;8.85;100.00
14612;BME280;7392;52.078;11.650;2023-04-08T12:13:51;101781.69;;;8.95;100.00
14612;BME280;7392;52.078;11.650;2023-04-08T12:16:20;101789.84;;;9.04;100.00
14612;BME280;7392;52.078;11.650;2023-04-08T12:18:48;101795.34;;;9.13;100.00
14612;BME280;7392;52.078;11.650;2023-04-08T12:21:16;101792.91;;;9.24;100.00
14612;BME280;7392;52.078;11.650;2023-04-08T12:23:46;101789.72;;;9.42;100.00
14612;BME280;7392;52.078;11.650;2023-04-08T12:26:14;101793.56;;;9.60;100.00
14612;BME280;7392;52.078;11.650;2023-04-08T12:28:43;101796.47;;;9.72;100.00
14612;BME280;7392;52.078;11.650;2023-04-08T12:31:11;101792.16;;;9.80;100.00
14612;BME280;7392;52.078;11.650;2023-04-08T12:33:38;101793.16;;;9.87;100.00
14612;BME280;7392;52.078;11.650;2023-04-08T12:36:06;101796.78;;;9.90;100.00
14612;BME280;7392;52.078;11.650;2023-04-08T12:38:36;101793.22;;;9.90;100.00
14612;BME280;7392;52.078;11.650;2023-04-08T12:41:04;101799.53;;;9.97;100.00
14612;BME280;7392;52.078;11.650;2023-04-08T12:43:32;101788.97;;;10.00;100.00
14612;BME280;7392;52.078;11.650;2023-04-08T12:46:01;101784.56;;;10.00;100.00
14612;BME280;7392;52.078;11.650;2023-04-08T12:48:29;101792.63;;;10.06;100.00
14612;BME280;7392;52.078;11.650;2023-04-08T12:50:56;101791.81;;;10.10;100.00
14612;BME280;7392;52.078;11.650;2023-04-08T12:53:24;101787.38;;;10.09;100.00
14612;BME280;7392;52.078;11.650;2023-04-08T12:55:52;101789.09;;;10.07;100.00
14612;BME280;7392;52.078;11.650;2023-04-08T12:58:22;101792.59;;;10.03;99.95
14612;BME280;7392;52.078;11.650;2023-04-08T13:00:51;101791.63;;;10.00;100.00
14612;BME280;7392;52.078;11.650;2023-04-08T13:03:21;101792.44;;;9.96;100.00